createdAt,value
2022-11-20T00:00:00.843Z,99248.03
2022-11-20T00:02:30.436Z,99246.91
2022-11-20T00:04:59.947Z,99242.84
2022-11-20T00:07:29.548Z,99253.72
2022-11-20T00:10:00.495Z,99259.09
2022-11-20T00:12:31.072Z,99259.47
2022-11-20T00:15:01.285Z,99263.56
2022-11-20T00:17:31.238Z,99269.22
2022-11-20T00:20:01.747Z,99267.72
2022-11-20T00:22:31.192Z,99263.19
2022-11-20T00:25:02.069Z,99257.81
2022-11-20T00:27:31.572Z,99253.72
2022-11-20T00:30:01.122Z,99253.72
2022-11-20T00:32:31.438Z,99253.28
2022-11-20T00:35:00.967Z,99261.09
2022-11-20T00:37:30.595Z,99254.34
2022-11-20T00:40:00.111Z,99251.16
2022-11-20T00:42:32.044Z,99241.28
2022-11-20T00:45:01.740Z,99247.72
2022-11-20T00:47:31.331Z,99235.41
2022-11-20T00:50:00.953Z,99242.13
2022-11-20T00:52:30.527Z,99240.34
2022-11-20T00:55:00.079Z,99234.09
2022-11-20T00:57:30.964Z,99234.03
2022-11-20T01:00:00.430Z,99236.00
2022-11-20T01:02:29.916Z,99239.38
2022-11-20T01:04:59.702Z,99238.03
2022-11-20T01:07:29.401Z,99240.91
2022-11-20T01:09:58.966Z,99232.66
2022-11-20T01:12:32.130Z,99232.03
2022-11-20T01:15:02.039Z,99248.38
2022-11-20T01:17:33.067Z,99247.66
2022-11-20T01:20:02.633Z,99246.72
2022-11-20T01:22:32.209Z,99249.47
2022-11-20T01:25:01.842Z,99243.44
2022-11-20T01:27:32.786Z,99244.25
2022-11-20T01:30:02.262Z,99236.72
2022-11-20T01:32:31.753Z,99245.16
2022-11-20T01:35:01.506Z,99235.94
2022-11-20T01:37:31.139Z,99237.22
2022-11-20T01:40:00.662Z,99229.66
2022-11-20T01:42:47.300Z,99238.28
2022-11-20T01:45:35.153Z,99236.34
2022-11-20T01:48:06.640Z,99246.75
2022-11-20T01:50:36.472Z,99241.75
2022-11-20T01:53:07.289Z,99249.91
2022-11-20T01:55:38.561Z,99247.22
2022-11-20T01:58:08.363Z,99261.50
2022-11-20T02:00:37.861Z,99246.31
2022-11-20T02:03:11.228Z,99241.84
2022-11-20T02:05:43.939Z,99240.34
2022-11-20T02:08:14.701Z,99240.78
2022-11-20T02:10:44.250Z,99247.09
2022-11-20T02:13:32.986Z,99244.84
2022-11-20T02:16:03.191Z,99238.78
2022-11-20T02:18:34.239Z,99243.13
2022-11-20T02:21:08.070Z,99236.28
2022-11-20T02:23:40.472Z,99241.75
2022-11-20T02:26:13.828Z,99239.28
2022-11-20T02:28:43.741Z,99234.59
2022-11-20T02:31:13.237Z,99235.78
2022-11-20T02:33:42.812Z,99227.41
2022-11-20T02:36:13.933Z,99230.13
2022-11-20T02:38:44.982Z,99228.88
2022-11-20T02:41:15.923Z,99220.94
2022-11-20T02:43:45.419Z,99224.59
2022-11-20T02:46:14.987Z,99223.19
2022-11-20T02:48:44.938Z,99216.69
2022-11-20T02:51:14.432Z,99216.75
2022-11-20T02:53:44.040Z,99214.28
2022-11-20T02:56:13.528Z,99220.19
2022-11-20T02:58:44.430Z,99205.91
2022-11-20T03:01:13.988Z,99199.97
2022-11-20T03:03:43.640Z,99205.78
2022-11-20T03:06:13.235Z,99199.94
2022-11-20T03:08:42.754Z,99199.28
2022-11-20T03:11:12.272Z,99202.06
2022-11-20T03:13:42.345Z,99204.59
2022-11-20T03:16:14.841Z,99202.03
2022-11-20T03:18:44.561Z,99211.13
2022-11-20T03:21:14.737Z,99209.81
2022-11-20T03:23:44.567Z,99193.69
2022-11-20T03:26:15.261Z,99187.25
2022-11-20T03:28:47.897Z,99192.72
2022-11-20T03:31:19.658Z,99193.19
2022-11-20T03:33:49.467Z,99191.19
2022-11-20T03:36:20.014Z,99190.19
2022-11-20T03:38:50.096Z,99181.66
2022-11-20T03:41:20.633Z,99193.44
2022-11-20T03:43:50.783Z,99197.31
2022-11-20T03:46:21.984Z,99200.72
2022-11-20T03:48:52.253Z,99201.78
2022-11-20T03:51:22.983Z,99192.06
2022-11-20T03:53:53.812Z,99194.06
2022-11-20T03:56:24.895Z,99190.72
2022-11-20T03:58:54.532Z,99189.63
2022-11-20T04:01:26.149Z,99184.91
2022-11-20T04:03:56.700Z,99179.91
2022-11-20T04:06:27.342Z,99159.56
2022-11-20T04:08:57.215Z,99168.47
2022-11-20T04:11:27.722Z,99160.31
2022-11-20T04:13:58.932Z,99157.53
2022-11-20T04:16:31.344Z,99150.19
2022-11-20T04:19:01.906Z,99137.66
2022-11-20T04:21:31.629Z,99138.47
2022-11-20T04:24:01.168Z,99150.63
2022-11-20T04:26:31.862Z,99155.56
2022-11-20T04:29:02.709Z,99169.19
2022-11-20T04:31:34.574Z,99150.28
2022-11-20T04:34:05.525Z,99160.94
2022-11-20T04:36:35.393Z,99171.53
2022-11-20T04:39:06.008Z,99179.03
2022-11-20T04:41:36.846Z,99169.00
2022-11-20T04:44:07.513Z,99160.50
2022-11-20T04:46:39.541Z,99157.81
2022-11-20T04:49:09.698Z,99161.31
2022-11-20T04:51:39.340Z,99181.75
2022-11-20T04:54:08.884Z,99165.16
2022-11-20T04:56:38.884Z,99165.88
2022-11-20T04:59:08.451Z,99168.03
2022-11-20T05:01:39.512Z,99182.88
2022-11-20T05:04:09.504Z,99188.63
2022-11-20T05:06:39.040Z,99168.66
2022-11-20T05:09:08.660Z,99166.13
2022-11-20T05:11:38.279Z,99175.97
2022-11-20T05:14:08.561Z,99173.91
2022-11-20T05:16:40.206Z,99173.75
2022-11-20T05:19:09.960Z,99182.84
2022-11-20T05:21:39.433Z,99190.00
2022-11-20T05:24:09.128Z,99201.50
2022-11-20T05:26:38.654Z,99189.59
2022-11-20T05:29:08.411Z,99188.69
2022-11-20T05:31:38.296Z,99188.03
2022-11-20T05:34:09.352Z,99190.91
2022-11-20T05:36:38.869Z,99192.06
2022-11-20T05:39:08.611Z,99187.50
2022-11-20T05:41:38.060Z,99172.72
2022-11-20T05:44:07.634Z,99175.22
2022-11-20T05:46:37.078Z,99177.63
2022-11-20T05:49:06.547Z,99185.72
2022-11-20T05:51:37.513Z,99179.00
2022-11-20T05:54:06.980Z,99194.34
2022-11-20T05:56:36.993Z,99187.91
2022-11-20T05:59:06.532Z,99184.03
2022-11-20T06:01:37.118Z,99193.06
2022-11-20T06:04:06.812Z,99195.28
2022-11-20T06:06:37.733Z,99186.72
2022-11-20T06:09:07.292Z,99190.19
2022-11-20T06:11:37.432Z,99188.03
2022-11-20T06:14:07.084Z,99183.44
2022-11-20T06:16:36.639Z,99191.59
2022-11-20T06:19:06.195Z,99194.47
2022-11-20T06:21:37.292Z,99210.81
2022-11-20T06:24:07.436Z,99200.91
2022-11-20T06:26:37.159Z,99195.22
2022-11-20T06:29:06.837Z,99205.72
2022-11-20T06:31:38.736Z,99209.75
2022-11-20T06:34:08.849Z,99208.59
2022-11-20T06:36:39.950Z,99209.56
2022-11-20T06:39:09.384Z,99212.44
2022-11-20T06:41:39.161Z,99214.84
2022-11-20T06:44:08.810Z,99219.72
2022-11-20T06:46:38.522Z,99221.03
2022-11-20T06:49:08.118Z,99231.69
2022-11-20T06:51:37.829Z,99231.78
2022-11-20T06:54:08.958Z,99228.91
2022-11-20T06:56:38.475Z,99238.47
2022-11-20T06:59:08.364Z,99248.28
2022-11-20T07:01:38.100Z,99240.88
2022-11-20T07:04:07.558Z,99247.97
2022-11-20T07:06:37.208Z,99239.97
2022-11-20T07:09:12.607Z,99242.19
2022-11-20T07:11:43.287Z,99252.63
2022-11-20T07:14:13.320Z,99250.66
2022-11-20T07:16:43.325Z,99251.28
2022-11-20T07:19:12.867Z,99256.03
2022-11-20T07:21:42.346Z,99254.53
2022-11-20T07:24:13.240Z,99251.00
2022-11-20T07:26:43.007Z,99241.53
2022-11-20T07:29:12.539Z,99247.97
2022-11-20T07:31:42.054Z,99249.34
2022-11-20T07:34:11.605Z,99250.91
2022-11-20T07:36:41.429Z,99254.53
2022-11-20T07:39:11.286Z,99253.69
2022-11-20T07:41:42.432Z,99250.47
2022-11-20T07:44:12.176Z,99248.97
2022-11-20T07:46:41.753Z,99261.69
2022-11-20T07:49:11.297Z,99255.03
2022-11-20T07:51:42.080Z,99245.28
2022-11-20T07:54:11.627Z,99233.66
2022-11-20T07:56:42.556Z,99240.53
2022-11-20T07:59:12.844Z,99237.66
2022-11-20T08:01:42.566Z,99247.38
2022-11-20T08:04:12.569Z,99246.63
2022-11-20T08:06:42.072Z,99228.16
2022-11-20T08:09:11.890Z,99239.56
2022-11-20T08:12:01.248Z,99240.56
2022-11-20T08:14:31.350Z,99247.66
2022-11-20T08:17:01.450Z,99249.78
2022-11-20T08:19:31.098Z,99257.34
2022-11-20T08:22:00.644Z,99256.03
2022-11-20T08:24:30.399Z,99261.81
2022-11-20T08:27:02.155Z,99245.06
2022-11-20T08:29:31.733Z,99242.94
2022-11-20T08:32:01.448Z,99242.94
2022-11-20T08:34:31.006Z,99241.06
2022-11-20T08:37:01.206Z,99227.75
2022-11-20T08:39:30.800Z,99220.34
2022-11-20T08:42:00.493Z,99197.28
2022-11-20T08:44:31.467Z,99198.78
2022-11-20T08:47:02.315Z,99194.22
2022-11-20T08:49:32.012Z,99190.75
2022-11-20T08:52:01.837Z,99175.88
2022-11-20T08:54:31.479Z,99181.19
2022-11-20T08:57:01.153Z,99179.16
2022-11-20T09:00:03.997Z,99180.91
2022-11-20T09:02:21.810Z,99173.00
2022-11-20T09:04:51.525Z,99170.97
2022-11-20T09:07:21.802Z,99176.69
2022-11-20T09:10:16.507Z,99181.03
2022-11-20T09:12:41.961Z,99182.47
2022-11-20T09:15:13.535Z,99183.13
2022-11-20T09:17:43.284Z,99188.03
2022-11-20T09:20:12.979Z,99183.19
2022-11-20T09:22:42.822Z,99183.50
2022-11-20T09:25:12.319Z,99190.25
2022-11-20T09:27:44.645Z,99182.91
2022-11-20T09:30:16.279Z,99182.44
2022-11-20T09:32:45.790Z,99131.34
2022-11-20T09:35:15.582Z,99183.06
2022-11-20T09:37:45.103Z,99175.78
2022-11-20T09:40:21.139Z,99172.28
2022-11-20T09:42:55.730Z,99165.13
2022-11-20T09:45:32.415Z,99170.59
2022-11-20T09:48:10.176Z,99156.63
2022-11-20T09:50:45.409Z,99160.53
2022-11-20T09:53:17.694Z,99155.56
2022-11-20T09:55:47.922Z,99165.53
2022-11-20T09:58:23.480Z,99163.66
2022-11-20T10:00:57.508Z,99162.53
2022-11-20T10:03:36.631Z,99162.78
2022-11-20T10:06:08.198Z,99164.63
2022-11-20T10:08:42.825Z,99168.81
2022-11-20T10:11:17.166Z,99163.41
2022-11-20T10:13:54.633Z,99164.94
2022-11-20T10:16:28.729Z,99156.47
2022-11-20T10:19:06.041Z,99158.03
2022-11-20T10:21:41.917Z,99173.63
2022-11-20T10:24:26.382Z,99179.97
2022-11-20T10:26:59.956Z,99166.78
2022-11-20T10:29:31.769Z,99158.88
2022-11-20T10:32:05.423Z,99160.53
2022-11-20T10:34:46.535Z,99168.28
2022-11-20T10:37:18.234Z,99149.56
2022-11-20T10:39:53.534Z,99146.47
2022-11-20T10:42:27.280Z,99141.47
2022-11-20T10:45:06.300Z,99154.84
2022-11-20T10:47:38.092Z,99147.34
2022-11-20T10:50:11.923Z,99144.19
2022-11-20T10:52:47.758Z,99150.25
2022-11-20T10:55:27.300Z,99142.78
2022-11-20T10:58:03.283Z,99143.19
2022-11-20T11:00:33.441Z,99126.94
2022-11-20T11:03:04.508Z,99120.69
2022-11-20T11:05:38.332Z,99126.94
2022-11-20T11:08:12.149Z,99107.63
2022-11-20T11:10:46.114Z,99103.84
2022-11-20T11:13:23.964Z,99092.41
2022-11-20T11:15:54.463Z,99085.72
2022-11-20T11:18:29.447Z,99071.78
2022-11-20T11:20:59.471Z,99063.44
2022-11-20T11:23:32.998Z,99074.69
2022-11-20T11:26:03.126Z,99063.25
2022-11-20T11:28:32.863Z,99055.94
2022-11-20T11:31:02.683Z,99057.66
2022-11-20T11:33:35.492Z,99057.44
2022-11-20T11:36:18.615Z,99048.06
2022-11-20T11:38:48.134Z,99043.28
2022-11-20T11:41:20.943Z,99043.47
2022-11-20T11:44:11.387Z,99044.53
2022-11-20T11:46:42.672Z,99039.31
2022-11-20T11:49:19.174Z,99048.28
2022-11-20T11:51:57.170Z,99052.03
2022-11-20T11:54:28.638Z,99059.50
2022-11-20T11:57:01.267Z,99051.19
2022-11-20T11:59:35.985Z,99039.94
2022-11-20T12:02:15.031Z,99028.28
2022-11-20T12:04:48.401Z,99052.03
2022-11-20T12:07:45.391Z,99052.00
2022-11-20T12:10:16.706Z,99061.81
2022-11-20T12:12:48.870Z,99060.78
2022-11-20T12:15:25.019Z,99055.38
2022-11-20T12:17:54.712Z,99046.59
2022-11-20T12:20:28.200Z,99040.16
2022-11-20T12:23:02.616Z,99046.81
2022-11-20T12:25:34.468Z,99059.94
2022-11-20T12:28:22.252Z,99050.34
2022-11-20T12:30:55.558Z,99054.09
2022-11-20T12:33:33.569Z,99049.13
2022-11-20T12:36:09.527Z,99042.00
2022-11-20T12:38:50.343Z,99040.75
2022-11-20T12:41:39.979Z,99031.59
2022-11-20T12:44:35.545Z,99025.97
2022-11-20T12:47:13.558Z,99011.63
2022-11-20T12:49:49.783Z,99027.44
2022-11-20T12:52:27.485Z,99016.63
2022-11-20T12:55:05.180Z,99028.69
2022-11-20T12:57:39.258Z,99029.72
2022-11-20T13:00:15.755Z,99025.78
2022-11-20T13:02:56.479Z,99030.97
2022-11-20T13:05:29.523Z,99039.25
2022-11-20T13:08:02.552Z,99027.81
2022-11-20T13:10:35.293Z,99023.69
2022-11-20T13:13:11.760Z,99019.09
2022-11-20T13:15:49.954Z,99019.94
2022-11-20T13:18:27.604Z,99018.88
2022-11-20T13:20:57.283Z,99014.53
2022-11-20T13:23:28.856Z,99009.31
2022-11-20T13:26:06.133Z,99008.06
2022-11-20T13:28:36.643Z,99012.63
2022-11-20T13:31:06.223Z,99011.59
2022-11-20T13:33:37.217Z,98997.66
2022-11-20T13:36:07.636Z,99004.28
2022-11-20T13:38:46.207Z,99001.19
2022-11-20T13:41:32.456Z,99012.41
2022-11-20T13:44:09.170Z,99018.44
2022-11-20T13:46:39.915Z,99020.28
2022-11-20T13:49:10.786Z,99013.81
2022-11-20T13:51:44.621Z,99001.75
2022-11-20T13:54:30.866Z,99001.31
2022-11-20T13:57:06.955Z,98998.22
2022-11-20T13:59:42.489Z,99006.94
2022-11-20T14:02:14.226Z,99014.03
2022-11-20T14:04:45.522Z,99009.63
2022-11-20T14:07:15.260Z,99010.19
2022-11-20T14:09:54.037Z,99007.31
2022-11-20T14:12:29.567Z,99004.41
2022-11-20T14:14:59.994Z,99007.28
2022-11-20T14:17:32.801Z,99009.53
2022-11-20T14:20:04.168Z,99014.25
2022-11-20T14:22:33.930Z,99014.25
2022-11-20T14:25:07.492Z,99009.47
2022-11-20T14:27:38.515Z,98998.88
2022-11-20T14:30:14.946Z,98998.41
2022-11-20T14:32:46.117Z,99001.94
2022-11-20T14:35:19.981Z,98996.47
2022-11-20T14:37:50.004Z,99011.63
2022-11-20T14:40:31.512Z,99008.03
2022-11-20T14:43:01.396Z,99012.81
2022-11-20T14:45:31.011Z,99008.28
2022-11-20T14:48:01.737Z,99009.72
2022-11-20T14:50:31.575Z,99007.81
2022-11-20T14:53:01.924Z,99011.53
2022-11-20T14:55:33.877Z,99024.41
2022-11-20T14:58:04.498Z,99017.25
2022-11-20T15:00:34.822Z,99014.56
2022-11-20T15:03:04.697Z,99014.34
2022-11-20T15:05:47.065Z,99019.31
2022-11-20T15:08:17.247Z,99016.19
2022-11-20T15:10:52.131Z,99029.00
2022-11-20T15:13:26.770Z,99035.50
2022-11-20T15:15:57.944Z,99031.66
2022-11-20T15:18:30.284Z,99023.28
2022-11-20T15:21:00.761Z,99028.28
2022-11-20T15:23:31.900Z,99034.94
2022-11-20T15:26:02.915Z,99022.66
2022-11-20T15:28:33.845Z,99027.25
2022-11-20T15:31:04.162Z,99029.88
2022-11-20T15:33:34.032Z,99031.09
2022-11-20T15:36:03.995Z,99038.38
2022-11-20T15:38:33.522Z,99036.28
2022-11-20T15:41:05.425Z,99027.19
2022-11-20T15:43:35.033Z,99035.00
2022-11-20T15:46:06.090Z,99038.38
2022-11-20T15:48:42.003Z,99049.75
2022-11-20T15:51:22.857Z,99046.19
2022-11-20T15:53:52.370Z,99044.53
2022-11-20T15:56:23.336Z,99036.81
2022-11-20T15:58:52.847Z,99031.97
2022-11-20T16:01:23.232Z,99042.22
2022-11-20T16:03:52.968Z,99041.53
2022-11-20T16:06:22.665Z,99043.13
2022-11-20T16:08:52.186Z,99050.34
2022-11-20T16:11:23.222Z,99059.78
2022-11-20T16:14:10.860Z,99063.25
2022-11-20T16:16:42.409Z,99064.75
2022-11-20T16:19:12.594Z,99070.63
2022-11-20T16:21:42.578Z,99063.63
2022-11-20T16:24:13.794Z,99065.13
2022-11-20T16:26:44.880Z,99056.28
2022-11-20T16:29:15.852Z,99041.91
2022-11-20T16:31:45.402Z,99039.59
2022-11-20T16:34:17.666Z,99037.47
2022-11-20T16:36:48.051Z,99027.06
2022-11-20T16:39:23.040Z,99031.59
2022-11-20T16:41:54.760Z,99031.78
2022-11-20T16:44:24.633Z,99040.16
2022-11-20T16:46:54.735Z,99049.34
2022-11-20T16:49:25.006Z,99045.16
2022-11-20T16:51:55.149Z,99054.34
2022-11-20T16:54:25.035Z,99063.66
2022-11-20T16:56:56.112Z,99063.19
2022-11-20T16:59:25.897Z,99074.16
2022-11-20T17:01:55.696Z,99080.53
2022-11-20T17:04:25.907Z,99074.91
2022-11-20T17:06:55.772Z,99077.41
2022-11-20T17:09:25.255Z,99060.13
2022-11-20T17:11:57.791Z,99055.09
2022-11-20T17:14:27.757Z,99062.53
2022-11-20T17:16:58.042Z,99063.94
2022-11-20T17:19:27.768Z,99054.94
2022-11-20T17:21:57.456Z,99057.13
2022-11-20T17:24:31.568Z,99046.94
2022-11-20T17:27:03.103Z,99034.84
2022-11-20T17:29:34.601Z,99026.59
2022-11-20T17:32:06.661Z,99028.66
2022-11-20T17:34:36.576Z,99033.41
2022-11-20T17:37:06.957Z,99031.91
2022-11-20T17:39:36.899Z,99031.22
2022-11-20T17:42:25.475Z,99034.28
2022-11-20T17:44:55.298Z,99037.00
2022-11-20T17:47:25.022Z,99038.22
2022-11-20T17:49:55.639Z,99033.00
2022-11-20T17:52:25.424Z,99033.66
2022-11-20T17:54:56.236Z,99029.66
2022-11-20T17:57:45.292Z,99031.53
2022-11-20T18:00:17.387Z,99044.59
2022-11-20T18:02:47.643Z,99042.47
2022-11-20T18:05:18.658Z,99056.13
2022-11-20T18:07:48.569Z,99056.47
2022-11-20T18:10:18.301Z,99056.31
2022-11-20T18:12:49.562Z,99053.88
2022-11-20T18:15:19.328Z,99056.47
2022-11-20T18:17:49.309Z,99052.94
2022-11-20T18:20:39.647Z,99037.63
2022-11-20T18:23:09.223Z,99034.47
2022-11-20T18:25:40.008Z,99037.34
2022-11-20T18:28:10.972Z,99035.31
2022-11-20T18:30:40.700Z,99025.75
2022-11-20T18:33:10.430Z,99015.16
2022-11-20T18:35:43.044Z,99023.41
2022-11-20T18:38:12.627Z,99027.78
2022-11-20T18:40:42.226Z,99008.69
2022-11-20T18:43:31.077Z,99007.00
2022-11-20T18:46:04.169Z,99017.38
2022-11-20T18:48:33.704Z,99015.53
2022-11-20T18:51:06.807Z,99018.13
2022-11-20T18:53:37.036Z,99017.47
2022-11-20T18:56:07.368Z,99012.06
2022-11-20T18:58:39.336Z,99009.38
2022-11-20T19:01:09.687Z,99008.38
2022-11-20T19:03:39.236Z,99004.38
2022-11-20T19:06:13.535Z,98988.75
2022-11-20T19:08:43.447Z,98977.03
2022-11-20T19:11:13.667Z,98960.69
2022-11-20T19:13:45.402Z,98947.25
2022-11-20T19:16:16.238Z,98960.88
2022-11-20T19:18:45.934Z,98966.06
2022-11-20T19:21:16.331Z,98966.34
2022-11-20T19:23:48.732Z,98975.47
2022-11-20T19:26:19.137Z,98967.19
2022-11-20T19:28:50.138Z,98965.16
2022-11-20T19:31:24.455Z,98974.72
2022-11-20T19:33:55.004Z,98990.84
2022-11-20T19:36:25.421Z,98982.66
2022-11-20T19:38:55.473Z,98993.44
2022-11-20T19:41:29.053Z,99008.09
2022-11-20T19:44:00.870Z,98998.19
2022-11-20T19:46:31.187Z,98997.34
2022-11-20T19:49:00.913Z,98987.06
2022-11-20T19:51:31.433Z,98981.88
2022-11-20T19:54:01.574Z,98982.25
2022-11-20T19:56:31.749Z,98970.84
2022-11-20T19:59:02.897Z,98963.34
2022-11-20T20:01:33.100Z,98974.38
2022-11-20T20:04:05.144Z,98977.84
2022-11-20T20:06:35.921Z,98972.50
2022-11-20T20:09:06.624Z,98967.31
2022-11-20T20:11:36.764Z,98973.19
2022-11-20T20:14:08.789Z,98973.53
2022-11-20T20:16:38.894Z,98974.84
2022-11-20T20:19:08.492Z,98981.50
2022-11-20T20:21:38.234Z,98977.50
2022-11-20T20:24:08.731Z,98994.56
2022-11-20T20:26:38.357Z,98985.38
2022-11-20T20:29:09.428Z,98959.88
2022-11-20T20:31:38.980Z,98953.22
2022-11-20T20:34:08.597Z,98951.22
2022-11-20T20:36:38.200Z,98952.63
2022-11-20T20:39:07.947Z,98951.59
2022-11-20T20:41:37.468Z,98953.81
2022-11-20T20:44:26.498Z,98950.00
2022-11-20T20:46:57.687Z,98935.88
2022-11-20T20:49:27.223Z,98930.69
2022-11-20T20:51:57.025Z,98933.56
2022-11-20T20:54:30.238Z,98932.56
2022-11-20T20:57:02.715Z,98921.16
2022-11-20T20:59:32.305Z,98897.69
2022-11-20T21:02:03.304Z,98887.28
2022-11-20T21:04:33.899Z,98869.16
2022-11-20T21:07:03.573Z,98887.78
2022-11-20T21:09:33.269Z,98904.91
2022-11-20T21:12:03.333Z,98897.84
2022-11-20T21:14:33.602Z,98905.75
2022-11-20T21:17:04.916Z,98902.16
2022-11-20T21:19:34.459Z,98895.09
2022-11-20T21:22:03.795Z,98907.53
2022-11-20T21:24:34.040Z,98907.34
2022-11-20T21:27:04.927Z,98905.22
2022-11-20T21:29:34.504Z,98895.09
2022-11-20T21:32:05.829Z,98877.31
2022-11-20T21:34:35.417Z,98873.22
2022-11-20T21:37:05.803Z,98864.53
2022-11-20T21:39:50.625Z,98843.03
2022-11-20T21:42:20.264Z,98834.78
2022-11-20T21:44:49.801Z,98834.41
2022-11-20T21:47:20.693Z,98824.47
2022-11-20T21:49:50.422Z,98813.34
2022-11-20T21:52:20.266Z,98831.63
2022-11-20T21:54:50.133Z,98828.09
2022-11-20T21:57:19.659Z,98811.69
2022-11-20T21:59:49.179Z,98817.06
2022-11-20T22:02:20.080Z,98811.63
2022-11-20T22:04:50.017Z,98809.13
2022-11-20T22:07:19.607Z,98789.91
2022-11-20T22:09:49.244Z,98791.38
2022-11-20T22:12:19.517Z,98789.72
2022-11-20T22:14:49.021Z,98792.22
2022-11-20T22:17:40.584Z,98789.72
2022-11-20T22:20:11.007Z,98789.72
2022-11-20T22:22:41.248Z,98784.22
2022-11-20T22:25:10.930Z,98773.22
2022-11-20T22:27:40.488Z,98753.38
2022-11-20T22:30:10.817Z,98753.72
2022-11-20T22:32:41.748Z,98741.94
2022-11-20T22:35:11.279Z,98744.06
2022-11-20T22:37:40.815Z,98742.97
2022-11-20T22:40:10.883Z,98741.69
2022-11-20T22:42:40.399Z,98746.88
2022-11-20T22:45:10.369Z,98743.34
2022-11-20T22:47:41.452Z,98747.31
2022-11-20T22:50:11.521Z,98739.00
2022-11-20T22:52:41.105Z,98748.47
2022-11-20T22:55:15.064Z,98740.59
2022-11-20T22:57:45.896Z,98724.44
2022-11-20T23:00:16.000Z,98722.59
2022-11-20T23:02:47.616Z,98709.44
2022-11-20T23:05:17.132Z,98692.91
2022-11-20T23:07:46.714Z,98704.03
2022-11-20T23:10:16.306Z,98682.25
2022-11-20T23:12:46.449Z,98684.50
2022-11-20T23:15:16.327Z,98666.88
2022-11-20T23:17:47.384Z,98669.94
2022-11-20T23:20:16.939Z,98651.31
2022-11-20T23:22:46.919Z,98658.72
2022-11-20T23:25:16.541Z,98642.31
2022-11-20T23:27:46.043Z,98635.72
2022-11-20T23:30:15.945Z,98608.81
2022-11-20T23:32:45.435Z,98603.66
2022-11-20T23:35:16.487Z,98588.66
2022-11-20T23:37:46.073Z,98588.72
2022-11-20T23:40:15.920Z,98578.41
2022-11-20T23:42:59.239Z,98567.34
2022-11-20T23:45:28.827Z,98558.19
2022-11-20T23:47:58.302Z,98583.34
2022-11-20T23:50:29.164Z,98581.75
2022-11-20T23:52:58.658Z,98603.38
2022-11-20T23:55:28.626Z,98589.50
2022-11-20T23:57:58.361Z,98587.16
